Dover, New Hampshire
Current Conditions -  °F | °C
As of 3:51 PM on Tuesday 21 Oct 2014 (Local Time) from KDAW Reporting Station
Overcast Overcast  
Wind Chill: 53°   Ceiling: 900
Heat Index: 53°   Visibility: 9mi
Dew Point: 49°   Wind: 10mph
Humidity: 86%   Direction: 10°N
Pressure: 29.96"   Gusts: NA
Location:  43.19°N, 70.87°W
Report Text: KDAW 211951Z AUTO 01009KT 9SM OVC009 12/09 A2996 RMK AO2 SLP145 T01170094
Loading
Personal Weather Stations






























Interactive Weather Map
Tropical Storm Tracking
New forecast layout! Learn more

10-Day Weather Forecast

Advertisements
Track Severe Weather on mobile